sensor_id;sensor_type;location;lat;lon;timestamp;pressure;altitude;pressure_sealevel;temperature;humidity
56582;BME280;42463;52.214;21.238;2023-05-19T00:01:05;101508.38;;;12.90;66.76
56582;BME280;42463;52.214;21.238;2023-05-19T00:03:12;101511.11;;;12.88;67.09
56582;BME280;42463;52.214;21.238;2023-05-19T00:05:19;101510.73;;;12.84;67.30
56582;BME280;42463;52.214;21.238;2023-05-19T00:07:30;101511.77;;;12.81;67.42
56582;BME280;42463;52.214;21.238;2023-05-19T00:09:37;101511.17;;;12.79;67.51
56582;BME280;42463;52.214;21.238;2023-05-19T00:11:44;101511.42;;;12.78;67.85
56582;BME280;42463;52.214;21.238;2023-05-19T00:13:49;101512.31;;;12.76;67.91
56582;BME280;42463;52.214;21.238;2023-05-19T00:15:56;101515.14;;;12.76;68.02
56582;BME280;42463;52.214;21.238;2023-05-19T00:18:02;101515.11;;;12.75;68.13
56582;BME280;42463;52.214;21.238;2023-05-19T00:20:09;101513.46;;;12.74;68.21
56582;BME280;42463;52.214;21.238;2023-05-19T00:22:16;101512.35;;;12.73;68.37
56582;BME280;42463;52.214;21.238;2023-05-19T00:24:22;101511.80;;;12.73;68.49
56582;BME280;42463;52.214;21.238;2023-05-19T00:26:27;101507.77;;;12.72;68.79
56582;BME280;42463;52.214;21.238;2023-05-19T00:28:37;101510.82;;;12.70;68.92
56582;BME280;42463;52.214;21.238;2023-05-19T00:30:42;101505.22;;;12.67;68.93
56582;BME280;42463;52.214;21.238;2023-05-19T00:32:48;101503.41;;;12.64;69.00
56582;BME280;42463;52.214;21.238;2023-05-19T00:34:53;101503.20;;;12.62;68.96
56582;BME280;42463;52.214;21.238;2023-05-19T00:36:59;101506.21;;;12.60;69.08
56582;BME280;42463;52.214;21.238;2023-05-19T00:39:04;101498.83;;;12.59;69.26
56582;BME280;42463;52.214;21.238;2023-05-19T00:41:11;101501.95;;;12.57;69.43
56582;BME280;42463;52.214;21.238;2023-05-19T00:43:16;101500.33;;;12.55;69.39
56582;BME280;42463;52.214;21.238;2023-05-19T00:45:22;101502.42;;;12.53;69.33
56582;BME280;42463;52.214;21.238;2023-05-19T00:47:28;101499.70;;;12.51;69.55
56582;BME280;42463;52.214;21.238;2023-05-19T00:49:34;101499.52;;;12.50;69.65
56582;BME280;42463;52.214;21.238;2023-05-19T00:51:40;101498.36;;;12.47;69.82
56582;BME280;42463;52.214;21.238;2023-05-19T00:53:46;101497.62;;;12.46;70.21
56582;BME280;42463;52.214;21.238;2023-05-19T00:55:54;101493.48;;;12.46;70.26
56582;BME280;42463;52.214;21.238;2023-05-19T00:58:00;101493.55;;;12.44;70.21
56582;BME280;42463;52.214;21.238;2023-05-19T01:03:24;101495.39;;;12.41;70.20
56582;BME280;42463;52.214;21.238;2023-05-19T01:05:29;101495.98;;;12.41;70.51
56582;BME280;42463;52.214;21.238;2023-05-19T01:07:35;101493.05;;;12.38;70.66
56582;BME280;42463;52.214;21.238;2023-05-19T01:09:41;101490.79;;;12.37;70.81
56582;BME280;42463;52.214;21.238;2023-05-19T01:11:47;101491.48;;;12.36;70.85
56582;BME280;42463;52.214;21.238;2023-05-19T01:13:52;101491.85;;;12.36;70.98
56582;BME280;42463;52.214;21.238;2023-05-19T01:16:04;101485.47;;;12.35;70.90
56582;BME280;42463;52.214;21.238;2023-05-19T01:18:14;101486.66;;;12.35;71.10
56582;BME280;42463;52.214;21.238;2023-05-19T01:20:33;101484.94;;;12.36;71.10
56582;BME280;42463;52.214;21.238;2023-05-19T01:23:02;101485.95;;;12.38;71.09
56582;BME280;42463;52.214;21.238;2023-05-19T01:25:33;101488.23;;;12.37;71.03
56582;BME280;42463;52.214;21.238;2023-05-19T01:27:49;101488.81;;;12.37;71.09
56582;BME280;42463;52.214;21.238;2023-05-19T01:32:30;101483.78;;;12.37;71.21
56582;BME280;42463;52.214;21.238;2023-05-19T01:34:43;101483.23;;;12.37;71.19
56582;BME280;42463;52.214;21.238;2023-05-19T01:36:51;101483.31;;;12.36;71.31
56582;BME280;42463;52.214;21.238;2023-05-19T01:39:00;101484.75;;;12.35;71.41
56582;BME280;42463;52.214;21.238;2023-05-19T01:41:08;101480.52;;;12.35;71.54
56582;BME280;42463;52.214;21.238;2023-05-19T01:43:17;101481.39;;;12.35;71.64
56582;BME280;42463;52.214;21.238;2023-05-19T01:45:24;101478.77;;;12.35;71.40
56582;BME280;42463;52.214;21.238;2023-05-19T01:47:30;101477.42;;;12.33;71.45
56582;BME280;42463;52.214;21.238;2023-05-19T01:49:36;101477.02;;;12.32;71.45
56582;BME280;42463;52.214;21.238;2023-05-19T01:51:41;101473.36;;;12.31;71.61
56582;BME280;42463;52.214;21.238;2023-05-19T01:53:47;101475.38;;;12.31;71.82
56582;BME280;42463;52.214;21.238;2023-05-19T01:55:54;101475.54;;;12.31;71.62
56582;BME280;42463;52.214;21.238;2023-05-19T01:58:09;101477.99;;;12.29;71.77
56582;BME280;42463;52.214;21.238;2023-05-19T02:00:22;101477.64;;;12.28;71.84
56582;BME280;42463;52.214;21.238;2023-05-19T02:02:36;101473.91;;;12.27;71.95
56582;BME280;42463;52.214;21.238;2023-05-19T02:04:50;101473.11;;;12.27;71.98
56582;BME280;42463;52.214;21.238;2023-05-19T02:07:04;101473.36;;;12.27;72.01
56582;BME280;42463;52.214;21.238;2023-05-19T02:09:14;101470.77;;;12.27;72.30
56582;BME280;42463;52.214;21.238;2023-05-19T02:11:24;101469.70;;;12.26;72.27
56582;BME280;42463;52.214;21.238;2023-05-19T02:13:36;101465.48;;;12.24;72.09
56582;BME280;42463;52.214;21.238;2023-05-19T02:15:42;101462.50;;;12.22;72.51
56582;BME280;42463;52.214;21.238;2023-05-19T02:17:50;101464.25;;;12.20;72.38
56582;BME280;42463;52.214;21.238;2023-05-19T02:19:57;101463.35;;;12.19;72.21
56582;BME280;42463;52.214;21.238;2023-05-19T02:22:03;101461.08;;;12.17;72.37
56582;BME280;42463;52.214;21.238;2023-05-19T02:24:09;101462.15;;;12.16;72.39
56582;BME280;42463;52.214;21.238;2023-05-19T02:26:15;101453.80;;;12.15;72.63
56582;BME280;42463;52.214;21.238;2023-05-19T02:28:21;101460.42;;;12.14;72.77
56582;BME280;42463;52.214;21.238;2023-05-19T02:30:26;101456.02;;;12.14;72.92
56582;BME280;42463;52.214;21.238;2023-05-19T02:32:32;101454.14;;;12.15;72.88
56582;BME280;42463;52.214;21.238;2023-05-19T02:34:37;101454.96;;;12.15;72.80
56582;BME280;42463;52.214;21.238;2023-05-19T02:36:43;101456.50;;;12.16;73.07
56582;BME280;42463;52.214;21.238;2023-05-19T02:38:48;101460.59;;;12.17;72.86
56582;BME280;42463;52.214;21.238;2023-05-19T02:40:54;101462.91;;;12.15;72.88
56582;BME280;42463;52.214;21.238;2023-05-19T02:43:00;101467.85;;;12.15;72.93
56582;BME280;42463;52.214;21.238;2023-05-19T02:45:08;101470.58;;;12.15;73.22
56582;BME280;42463;52.214;21.238;2023-05-19T02:47:14;101470.36;;;12.15;73.21
56582;BME280;42463;52.214;21.238;2023-05-19T02:49:19;101469.44;;;12.16;73.23
56582;BME280;42463;52.214;21.238;2023-05-19T02:51:25;101467.48;;;12.15;73.11
56582;BME280;42463;52.214;21.238;2023-05-19T02:53:30;101466.74;;;12.14;73.22
56582;BME280;42463;52.214;21.238;2023-05-19T02:55:36;101464.23;;;12.14;73.38
56582;BME280;42463;52.214;21.238;2023-05-19T02:57:41;101465.46;;;12.13;73.47
56582;BME280;42463;52.214;21.238;2023-05-19T02:59:47;101469.20;;;12.12;73.40
56582;BME280;42463;52.214;21.238;2023-05-19T03:01:56;101467.05;;;12.11;73.57
56582;BME280;42463;52.214;21.238;2023-05-19T03:04:01;101470.04;;;12.11;73.68
56582;BME280;42463;52.214;21.238;2023-05-19T03:06:07;101471.79;;;12.11;73.74
56582;BME280;42463;52.214;21.238;2023-05-19T03:08:12;101471.24;;;12.11;73.88
56582;BME280;42463;52.214;21.238;2023-05-19T03:10:18;101469.40;;;12.11;73.98
56582;BME280;42463;52.214;21.238;2023-05-19T03:12:23;101471.83;;;12.11;73.94
56582;BME280;42463;52.214;21.238;2023-05-19T03:14:29;101468.73;;;12.10;74.10
56582;BME280;42463;52.214;21.238;2023-05-19T03:16:35;101474.70;;;12.10;74.16
56582;BME280;42463;52.214;21.238;2023-05-19T03:18:41;101474.51;;;12.09;74.10
56582;BME280;42463;52.214;21.238;2023-05-19T03:20:47;101477.98;;;12.08;74.32
56582;BME280;42463;52.214;21.238;2023-05-19T03:22:53;101476.79;;;12.08;74.42
56582;BME280;42463;52.214;21.238;2023-05-19T03:24:58;101476.41;;;12.08;74.33
56582;BME280;42463;52.214;21.238;2023-05-19T03:27:04;101477.45;;;12.08;74.35
56582;BME280;42463;52.214;21.238;2023-05-19T03:29:10;101474.40;;;12.08;74.43
56582;BME280;42463;52.214;21.238;2023-05-19T03:31:16;101475.60;;;12.09;74.62
56582;BME280;42463;52.214;21.238;2023-05-19T03:33:21;101479.27;;;12.10;74.66
56582;BME280;42463;52.214;21.238;2023-05-19T03:35:27;101481.19;;;12.10;74.73
56582;BME280;42463;52.214;21.238;2023-05-19T03:37:33;101479.91;;;12.09;74.65
56582;BME280;42463;52.214;21.238;2023-05-19T03:39:39;101479.26;;;12.07;74.71
56582;BME280;42463;52.214;21.238;2023-05-19T03:41:45;101476.99;;;12.06;74.92
56582;BME280;42463;52.214;21.238;2023-05-19T03:43:50;101478.70;;;12.04;74.95
56582;BME280;42463;52.214;21.238;2023-05-19T03:45:56;101475.35;;;12.02;74.90
56582;BME280;42463;52.214;21.238;2023-05-19T03:48:26;101478.02;;;12.03;75.06
56582;BME280;42463;52.214;21.238;2023-05-19T03:50:51;101476.91;;;12.04;74.99
56582;BME280;42463;52.214;21.238;2023-05-19T03:53:01;101472.95;;;12.05;74.95
56582;BME280;42463;52.214;21.238;2023-05-19T03:55:10;101472.55;;;12.06;75.17
56582;BME280;42463;52.214;21.238;2023-05-19T03:57:17;101475.23;;;12.06;75.15
56582;BME280;42463;52.214;21.238;2023-05-19T03:59:24;101472.65;;;12.03;75.08
56582;BME280;42463;52.214;21.238;2023-05-19T04:01:30;101471.35;;;12.03;75.18
56582;BME280;42463;52.214;21.238;2023-05-19T04:03:35;101471.27;;;12.03;75.06
56582;BME280;42463;52.214;21.238;2023-05-19T04:05:41;101471.02;;;12.03;75.35
56582;BME280;42463;52.214;21.238;2023-05-19T04:07:47;101471.86;;;12.05;75.48
56582;BME280;42463;52.214;21.238;2023-05-19T04:09:52;101470.02;;;12.05;75.40
56582;BME280;42463;52.214;21.238;2023-05-19T04:11:58;101474.39;;;12.06;75.60
56582;BME280;42463;52.214;21.238;2023-05-19T04:14:04;101472.24;;;12.07;75.50
56582;BME280;42463;52.214;21.238;2023-05-19T04:16:09;101470.70;;;12.09;75.82
56582;BME280;42463;52.214;21.238;2023-05-19T04:18:15;101473.40;;;12.10;75.77
56582;BME280;42463;52.214;21.238;2023-05-19T04:20:21;101472.25;;;12.12;75.88
56582;BME280;42463;52.214;21.238;2023-05-19T04:22:28;101468.86;;;12.14;75.81
56582;BME280;42463;52.214;21.238;2023-05-19T04:24:33;101466.34;;;12.11;75.56
56582;BME280;42463;52.214;21.238;2023-05-19T04:26:40;101466.05;;;12.07;75.68
56582;BME280;42463;52.214;21.238;2023-05-19T04:28:49;101469.34;;;12.04;75.62
56582;BME280;42463;52.214;21.238;2023-05-19T04:30:55;101472.42;;;11.98;75.60
56582;BME280;42463;52.214;21.238;2023-05-19T04:33:02;101475.56;;;11.93;75.65
56582;BME280;42463;52.214;21.238;2023-05-19T04:35:08;101476.16;;;11.90;75.77
56582;BME280;42463;52.214;21.238;2023-05-19T04:37:14;101475.28;;;11.90;75.91
56582;BME280;42463;52.214;21.238;2023-05-19T04:39:20;101475.69;;;11.91;75.94
56582;BME280;42463;52.214;21.238;2023-05-19T04:41:26;101474.93;;;11.91;75.85
56582;BME280;42463;52.214;21.238;2023-05-19T04:43:32;101480.79;;;11.93;75.84
56582;BME280;42463;52.214;21.238;2023-05-19T04:45:38;101475.96;;;11.94;75.92
56582;BME280;42463;52.214;21.238;2023-05-19T04:47:46;101475.58;;;11.94;75.98
56582;BME280;42463;52.214;21.238;2023-05-19T04:49:52;101472.09;;;11.95;76.01
56582;BME280;42463;52.214;21.238;2023-05-19T04:51:58;101475.23;;;11.97;75.99
56582;BME280;42463;52.214;21.238;2023-05-19T04:54:05;101475.95;;;11.97;75.97
56582;BME280;42463;52.214;21.238;2023-05-19T04:56:11;101476.48;;;11.97;76.03
56582;BME280;42463;52.214;21.238;2023-05-19T04:58:18;101481.08;;;11.96;76.04
56582;BME280;42463;52.214;21.238;2023-05-19T05:00:24;101481.45;;;11.98;76.23
56582;BME280;42463;52.214;21.238;2023-05-19T05:02:33;101479.77;;;12.01;76.33
56582;BME280;42463;52.214;21.238;2023-05-19T05:04:39;101479.93;;;12.01;76.29
56582;BME280;42463;52.214;21.238;2023-05-19T05:06:47;101480.19;;;12.00;76.23
56582;BME280;42463;52.214;21.238;2023-05-19T05:08:53;101479.48;;;12.00;76.07
56582;BME280;42463;52.214;21.238;2023-05-19T05:11:00;101482.35;;;11.99;76.24
56582;BME280;42463;52.214;21.238;2023-05-19T05:13:07;101481.90;;;11.99;76.22
56582;BME280;42463;52.214;21.238;2023-05-19T05:15:15;101483.17;;;12.00;76.18
56582;BME280;42463;52.214;21.238;2023-05-19T05:17:22;101481.54;;;12.02;76.24
56582;BME280;42463;52.214;21.238;2023-05-19T05:19:29;101479.16;;;12.05;76.27
56582;BME280;42463;52.214;21.238;2023-05-19T05:21:36;101479.48;;;12.07;75.94
56582;BME280;42463;52.214;21.238;2023-05-19T05:23:43;101481.02;;;12.10;75.94
56582;BME280;42463;52.214;21.238;2023-05-19T05:25:50;101476.57;;;12.08;75.88
56582;BME280;42463;52.214;21.238;2023-05-19T05:27:56;101477.70;;;12.10;75.97
56582;BME280;42463;52.214;21.238;2023-05-19T05:30:02;101475.55;;;12.09;75.82
56582;BME280;42463;52.214;21.238;2023-05-19T05:32:09;101475.36;;;12.08;75.81
56582;BME280;42463;52.214;21.238;2023-05-19T05:34:15;101476.45;;;12.08;75.84
56582;BME280;42463;52.214;21.238;2023-05-19T05:36:20;101478.27;;;12.11;75.88
56582;BME280;42463;52.214;21.238;2023-05-19T05:38:26;101477.67;;;12.12;75.89
56582;BME280;42463;52.214;21.238;2023-05-19T05:40:31;101482.14;;;12.12;75.67
56582;BME280;42463;52.214;21.238;2023-05-19T05:42:37;101480.23;;;12.14;75.81
56582;BME280;42463;52.214;21.238;2023-05-19T05:44:43;101484.33;;;12.17;75.82
56582;BME280;42463;52.214;21.238;2023-05-19T05:46:49;101482.90;;;12.17;75.65
56582;BME280;42463;52.214;21.238;2023-05-19T05:48:56;101478.31;;;12.16;75.64
56582;BME280;42463;52.214;21.238;2023-05-19T05:51:03;101480.86;;;12.18;75.73
56582;BME280;42463;52.214;21.238;2023-05-19T05:53:09;101480.21;;;12.21;75.81
56582;BME280;42463;52.214;21.238;2023-05-19T05:55:19;101481.63;;;12.23;75.70
56582;BME280;42463;52.214;21.238;2023-05-19T05:57:25;101480.92;;;12.26;75.56
56582;BME280;42463;52.214;21.238;2023-05-19T05:59:33;101477.31;;;12.28;75.54
56582;BME280;42463;52.214;21.238;2023-05-19T06:01:39;101484.02;;;12.31;75.72
56582;BME280;42463;52.214;21.238;2023-05-19T06:03:46;101480.61;;;12.37;75.65
56582;BME280;42463;52.214;21.238;2023-05-19T06:05:55;101479.60;;;12.41;75.61
56582;BME280;42463;52.214;21.238;2023-05-19T06:08:00;101479.88;;;12.44;75.30
56582;BME280;42463;52.214;21.238;2023-05-19T06:10:07;101481.50;;;12.46;75.40
56582;BME280;42463;52.214;21.238;2023-05-19T06:12:14;101484.15;;;12.49;75.29
56582;BME280;42463;52.214;21.238;2023-05-19T06:14:23;101481.33;;;12.52;75.03
56582;BME280;42463;52.214;21.238;2023-05-19T06:16:45;101482.89;;;12.56;75.21
56582;BME280;42463;52.214;21.238;2023-05-19T06:18:52;101482.47;;;12.57;74.84
56582;BME280;42463;52.214;21.238;2023-05-19T06:20:58;101485.45;;;12.59;74.78
56582;BME280;42463;52.214;21.238;2023-05-19T06:23:05;101485.00;;;12.59;74.47
56582;BME280;42463;52.214;21.238;2023-05-19T06:25:10;101483.09;;;12.58;74.39
56582;BME280;42463;52.214;21.238;2023-05-19T06:27:16;101484.44;;;12.58;74.28
56582;BME280;42463;52.214;21.238;2023-05-19T06:29:23;101484.73;;;12.58;74.26
56582;BME280;42463;52.214;21.238;2023-05-19T06:31:29;101485.47;;;12.60;74.39
56582;BME280;42463;52.214;21.238;2023-05-19T06:33:43;101485.75;;;12.63;74.22
56582;BME280;42463;52.214;21.238;2023-05-19T06:35:48;101484.79;;;12.64;74.00
56582;BME280;42463;52.214;21.238;2023-05-19T06:37:54;101483.45;;;12.63;74.17
56582;BME280;42463;52.214;21.238;2023-05-19T06:40:00;101486.23;;;12.66;74.13
56582;BME280;42463;52.214;21.238;2023-05-19T06:42:07;101486.86;;;12.70;74.21
56582;BME280;42463;52.214;21.238;2023-05-19T06:44:45;101485.46;;;12.71;73.87
56582;BME280;42463;52.214;21.238;2023-05-19T06:46:54;101483.06;;;12.71;73.87
56582;BME280;42463;52.214;21.238;2023-05-19T06:48:59;101484.86;;;12.73;74.04
56582;BME280;42463;52.214;21.238;2023-05-19T06:51:07;101483.19;;;12.77;73.95
56582;BME280;42463;52.214;21.238;2023-05-19T06:53:15;101485.17;;;12.78;73.91
56582;BME280;42463;52.214;21.238;2023-05-19T06:55:21;101484.73;;;12.75;73.58
56582;BME280;42463;52.214;21.238;2023-05-19T06:57:27;101481.20;;;12.76;73.66
56582;BME280;42463;52.214;21.238;2023-05-19T06:59:33;101483.66;;;12.76;73.59
56582;BME280;42463;52.214;21.238;2023-05-19T07:01:42;101486.13;;;12.77;73.35
56582;BME280;42463;52.214;21.238;2023-05-19T07:03:47;101484.71;;;12.76;73.51
56582;BME280;42463;52.214;21.238;2023-05-19T07:05:53;101482.39;;;12.75;73.73
56582;BME280;42463;52.214;21.238;2023-05-19T07:07:59;101483.05;;;12.75;73.85
56582;BME280;42463;52.214;21.238;2023-05-19T07:10:07;101479.12;;;12.77;73.74
56582;BME280;42463;52.214;21.238;2023-05-19T07:12:13;101480.41;;;12.80;73.61
56582;BME280;42463;52.214;21.238;2023-05-19T07:14:18;101481.53;;;12.82;73.68
56582;BME280;42463;52.214;21.238;2023-05-19T07:16:25;101480.69;;;12.86;73.52
56582;BME280;42463;52.214;21.238;2023-05-19T07:18:31;101477.35;;;12.91;73.56
56582;BME280;42463;52.214;21.238;2023-05-19T07:20:36;101476.35;;;12.93;73.39
56582;BME280;42463;52.214;21.238;2023-05-19T07:22:42;101475.28;;;12.93;73.45
56582;BME280;42463;52.214;21.238;2023-05-19T07:24:47;101479.73;;;12.93;73.20
56582;BME280;42463;52.214;21.238;2023-05-19T07:26:54;101483.38;;;12.93;73.20
56582;BME280;42463;52.214;21.238;2023-05-19T07:28:59;101483.36;;;12.92;73.00
56582;BME280;42463;52.214;21.238;2023-05-19T07:31:05;101482.30;;;12.93;73.10
56582;BME280;42463;52.214;21.238;2023-05-19T07:33:11;101481.61;;;12.95;73.05
56582;BME280;42463;52.214;21.238;2023-05-19T07:35:16;101478.34;;;12.97;72.92
56582;BME280;42463;52.214;21.238;2023-05-19T07:37:22;101478.01;;;12.99;72.75
56582;BME280;42463;52.214;21.238;2023-05-19T07:39:27;101474.25;;;13.00;72.58
56582;BME280;42463;52.214;21.238;2023-05-19T07:41:35;101478.45;;;13.00;72.58
56582;BME280;42463;52.214;21.238;2023-05-19T07:43:41;101475.98;;;13.03;72.79
56582;BME280;42463;52.214;21.238;2023-05-19T07:45:46;101476.28;;;13.06;72.40
56582;BME280;42463;52.214;21.238;2023-05-19T07:47:52;101481.48;;;13.10;72.29
56582;BME280;42463;52.214;21.238;2023-05-19T07:49:57;101478.80;;;13.10;72.37
56582;BME280;42463;52.214;21.238;2023-05-19T07:52:02;101477.17;;;13.11;72.53
56582;BME280;42463;52.214;21.238;2023-05-19T07:54:08;101477.67;;;13.14;72.45
56582;BME280;42463;52.214;21.238;2023-05-19T07:56:14;101480.04;;;13.17;72.40
56582;BME280;42463;52.214;21.238;2023-05-19T07:58:19;101476.30;;;13.21;72.35
56582;BME280;42463;52.214;21.238;2023-05-19T08:00:25;101480.08;;;13.25;72.49
56582;BME280;42463;52.214;21.238;2023-05-19T08:02:31;101479.16;;;13.29;72.23
56582;BME280;42463;52.214;21.238;2023-05-19T08:04:36;101474.06;;;13.34;72.15
56582;BME280;42463;52.214;21.238;2023-05-19T08:06:42;101476.70;;;13.38;72.12
56582;BME280;42463;52.214;21.238;2023-05-19T08:08:48;101476.33;;;13.41;71.55
56582;BME280;42463;52.214;21.238;2023-05-19T08:10:54;101473.64;;;13.41;71.18
56582;BME280;42463;52.214;21.238;2023-05-19T08:12:59;101475.33;;;13.40;70.93
56582;BME280;42463;52.214;21.238;2023-05-19T08:15:06;101472.41;;;13.43;71.17
56582;BME280;42463;52.214;21.238;2023-05-19T08:17:14;101468.98;;;13.46;71.28
56582;BME280;42463;52.214;21.238;2023-05-19T08:19:20;101471.64;;;13.49;71.03
56582;BME280;42463;52.214;21.238;2023-05-19T08:21:25;101468.78;;;13.51;71.09
56582;BME280;42463;52.214;21.238;2023-05-19T08:23:32;101466.95;;;13.54;71.12
56582;BME280;42463;52.214;21.238;2023-05-19T08:25:38;101467.09;;;13.56;70.90
56582;BME280;42463;52.214;21.238;2023-05-19T08:27:43;101464.72;;;13.57;70.84
56582;BME280;42463;52.214;21.238;2023-05-19T08:29:49;101463.81;;;13.58;70.80
56582;BME280;42463;52.214;21.238;2023-05-19T08:31:55;101462.89;;;13.59;70.68
56582;BME280;42463;52.214;21.238;2023-05-19T08:34:01;101468.48;;;13.62;70.55
56582;BME280;42463;52.214;21.238;2023-05-19T08:36:07;101468.48;;;13.64;70.73
56582;BME280;42463;52.214;21.238;2023-05-19T08:38:13;101471.58;;;13.67;70.48
56582;BME280;42463;52.214;21.238;2023-05-19T08:40:19;101470.64;;;13.69;70.65
56582;BME280;42463;52.214;21.238;2023-05-19T08:42:25;101475.30;;;13.76;70.40
56582;BME280;42463;52.214;21.238;2023-05-19T08:44:30;101471.15;;;13.78;70.11
56582;BME280;42463;52.214;21.238;2023-05-19T08:46:36;101475.42;;;13.80;69.60
56582;BME280;42463;52.214;21.238;2023-05-19T08:48:43;101476.15;;;13.81;69.62
56582;BME280;42463;52.214;21.238;2023-05-19T08:50:55;101478.62;;;13.82;69.71
56582;BME280;42463;52.214;21.238;2023-05-19T08:53:06;101479.98;;;13.85;69.49
56582;BME280;42463;52.214;21.238;2023-05-19T08:55:21;101477.00;;;13.87;69.33
56582;BME280;42463;52.214;21.238;2023-05-19T08:57:30;101473.97;;;13.88;69.07
56582;BME280;42463;52.214;21.238;2023-05-19T08:59:37;101477.54;;;13.90;69.02
56582;BME280;42463;52.214;21.238;2023-05-19T09:01:45;101477.36;;;13.89;69.05
56582;BME280;42463;52.214;21.238;2023-05-19T09:03:52;101477.63;;;13.88;69.26
56582;BME280;42463;52.214;21.238;2023-05-19T09:05:58;101478.48;;;13.91;69.22
56582;BME280;42463;52.214;21.238;2023-05-19T09:08:04;101476.38;;;13.92;69.27
56582;BME280;42463;52.214;21.238;2023-05-19T09:10:10;101479.81;;;13.96;69.19
56582;BME280;42463;52.214;21.238;2023-05-19T09:12:19;101477.19;;;13.99;69.30
56582;BME280;42463;52.214;21.238;2023-05-19T09:14:24;101473.63;;;14.02;69.16
56582;BME280;42463;52.214;21.238;2023-05-19T09:16:30;101474.73;;;14.07;69.22
56582;BME280;42463;52.214;21.238;2023-05-19T09:18:38;101475.10;;;14.10;68.99
56582;BME280;42463;52.214;21.238;2023-05-19T09:20:45;101475.23;;;14.16;69.05
56582;BME280;42463;52.214;21.238;2023-05-19T09:22:50;101474.48;;;14.20;68.76
56582;BME280;42463;52.214;21.238;2023-05-19T09:24:56;101470.99;;;14.22;68.41
56582;BME280;42463;52.214;21.238;2023-05-19T09:27:02;101473.51;;;14.22;68.21
56582;BME280;42463;52.214;21.238;2023-05-19T09:29:15;101472.47;;;14.22;68.21
56582;BME280;42463;52.214;21.238;2023-05-19T09:31:21;101472.20;;;14.22;68.13
56582;BME280;42463;52.214;21.238;2023-05-19T09:33:27;101471.13;;;14.23;67.99
56582;BME280;42463;52.214;21.238;2023-05-19T09:35:34;101471.04;;;14.25;67.85
56582;BME280;42463;52.214;21.238;2023-05-19T09:37:41;101470.44;;;14.25;67.92
56582;BME280;42463;52.214;21.238;2023-05-19T09:39:47;101472.48;;;14.27;67.75
56582;BME280;42463;52.214;21.238;2023-05-19T09:41:56;101470.56;;;14.30;67.52
56582;BME280;42463;52.214;21.238;2023-05-19T09:44:01;101472.42;;;14.30;67.59
56582;BME280;42463;52.214;21.238;2023-05-19T09:46:08;101473.00;;;14.32;67.90
56582;BME280;42463;52.214;21.238;2023-05-19T09:48:15;101470.10;;;14.37;67.84
56582;BME280;42463;52.214;21.238;2023-05-19T09:50:22;101475.53;;;14.42;67.69
56582;BME280;42463;52.214;21.238;2023-05-19T09:52:28;101475.04;;;14.45;67.68
56582;BME280;42463;52.214;21.238;2023-05-19T09:54:35;101477.70;;;14.48;67.75
56582;BME280;42463;52.214;21.238;2023-05-19T09:56:40;101478.30;;;14.52;67.59
56582;BME280;42463;52.214;21.238;2023-05-19T09:58:46;101476.02;;;14.56;67.57
56582;BME280;42463;52.214;21.238;2023-05-19T10:00:53;101471.73;;;14.59;67.55
56582;BME280;42463;52.214;21.238;2023-05-19T10:03:00;101475.80;;;14.60;67.48
56582;BME280;42463;52.214;21.238;2023-05-19T10:05:09;101471.25;;;14.58;67.20
56582;BME280;42463;52.214;21.238;2023-05-19T10:07:15;101471.77;;;14.61;67.26
56582;BME280;42463;52.214;21.238;2023-05-19T10:09:23;101471.76;;;14.64;66.93
56582;BME280;42463;52.214;21.238;2023-05-19T10:11:30;101471.27;;;14.65;66.71
56582;BME280;42463;52.214;21.238;2023-05-19T10:13:37;101469.10;;;14.66;66.68
56582;BME280;42463;52.214;21.238;2023-05-19T10:15:43;101472.20;;;14.70;66.75
56582;BME280;42463;52.214;21.238;2023-05-19T10:17:51;101472.84;;;14.73;66.59
56582;BME280;42463;52.214;21.238;2023-05-19T10:19:57;101472.40;;;14.74;66.15
56582;BME280;42463;52.214;21.238;2023-05-19T10:22:03;101470.23;;;14.76;66.38
56582;BME280;42463;52.214;21.238;2023-05-19T10:24:09;101471.79;;;14.77;66.06
56582;BME280;42463;52.214;21.238;2023-05-19T10:26:15;101470.84;;;14.81;66.22
56582;BME280;42463;52.214;21.238;2023-05-19T10:28:23;101467.89;;;14.85;66.19
56582;BME280;42463;52.214;21.238;2023-05-19T10:30:35;101466.52;;;14.90;66.25
56582;BME280;42463;52.214;21.238;2023-05-19T10:32:43;101464.20;;;14.94;66.02
56582;BME280;42463;52.214;21.238;2023-05-19T10:37:33;101460.92;;;15.05;66.05
56582;BME280;42463;52.214;21.238;2023-05-19T10:39:42;101457.36;;;15.09;66.00
56582;BME280;42463;52.214;21.238;2023-05-19T10:41:56;101461.59;;;15.12;65.64
56582;BME280;42463;52.214;21.238;2023-05-19T10:44:12;101461.41;;;15.15;65.61
56582;BME280;42463;52.214;21.238;2023-05-19T10:46:24;101457.43;;;15.17;65.20
56582;BME280;42463;52.214;21.238;2023-05-19T10:48:33;101458.43;;;15.17;65.35
56582;BME280;42463;52.214;21.238;2023-05-19T10:50:39;101458.70;;;15.19;65.38
56582;BME280;42463;52.214;21.238;2023-05-19T10:52:53;101457.56;;;15.19;65.24
56582;BME280;42463;52.214;21.238;2023-05-19T10:54:59;101456.92;;;15.21;65.08
56582;BME280;42463;52.214;21.238;2023-05-19T10:57:05;101458.05;;;15.18;65.05
56582;BME280;42463;52.214;21.238;2023-05-19T10:59:33;101458.10;;;15.18;65.05
56582;BME280;42463;52.214;21.238;2023-05-19T11:01:42;101459.05;;;15.20;65.35
56582;BME280;42463;52.214;21.238;2023-05-19T11:03:49;101460.88;;;15.24;65.55
56582;BME280;42463;52.214;21.238;2023-05-19T11:06:23;101462.50;;;15.26;65.46